Time;durP1;ratioP1;P1;durP2;ratioP2;P2;SDS_P1;SDS_P2;PMS_P1;PMS_P2;Temp;Humidity;BMP_temperature;BMP_pressure;BME280_temperature;BME280_humidity;BME280_pressure;Samples;Min_cycle;Max_cycle;Signal;HPM_P1;HPM_P2
2021/09/19 00:02:25;;;;;;;8.07;7.47;;;22.30;34.60;;;;;;4973704;28;20410;-57
2021/09/19 00:04:50;;;;;;;8.10;7.40;;;22.30;34.50;;;;;;4973652;28;20994;-58
2021/09/19 00:07:16;;;;;;;8.23;7.63;;;22.30;34.60;;;;;;4973323;28;20241;-58
2021/09/19 00:09:42;;;;;;;8.73;8.13;;;22.30;34.70;;;;;;4973482;28;20179;-57
2021/09/19 00:12:07;;;;;;;7.73;7.13;;;22.30;34.80;;;;;;4973533;28;20174;-59
2021/09/19 00:14:34;;;;;;;7.30;6.80;;;22.30;34.70;;;;;;4973648;28;20202;-58
2021/09/19 00:17:01;;;;;;;8.40;7.80;;;22.30;34.60;;;;;;4973236;28;20649;-58
2021/09/19 00:19:26;;;;;;;7.73;7.23;;;22.30;34.60;;;;;;4973373;28;20422;-59
2021/09/19 00:21:52;;;;;;;7.77;7.23;;;22.30;34.60;;;;;;4973328;28;20443;-58
2021/09/19 00:24:18;;;;;;;7.70;7.00;;;22.30;34.70;;;;;;4973612;28;20240;-57
2021/09/19 00:26:43;;;;;;;8.60;7.90;;;22.30;34.60;;;;;;4973059;28;20203;-58
2021/09/19 00:29:09;;;;;;;8.13;7.57;;;22.20;34.50;;;;;;4973224;28;20218;-58
2021/09/19 00:31:34;;;;;;;7.33;6.77;;;22.20;34.60;;;;;;4973258;28;20182;-58
2021/09/19 00:34:00;;;;;;;7.47;6.93;;;22.20;34.50;;;;;;4973287;28;20182;-57
2021/09/19 00:36:25;;;;;;;7.50;7.00;;;22.30;34.60;;;;;;4973357;28;20518;-59
2021/09/19 00:38:51;;;;;;;8.03;7.43;;;22.20;34.50;;;;;;4973054;28;20329;-58
2021/09/19 00:41:17;;;;;;;8.37;7.73;;;22.20;34.50;;;;;;4973334;28;20174;-58
2021/09/19 00:43:42;;;;;;;7.10;6.60;;;22.20;34.50;;;;;;4973240;28;20182;-57
2021/09/19 00:46:08;;;;;;;7.97;7.40;;;22.20;34.40;;;;;;4973203;28;20819;-59
2021/09/19 00:48:33;;;;;;;7.63;7.13;;;22.20;34.60;;;;;;4972669;28;20219;-57
2021/09/19 00:50:59;;;;;;;7.53;7.03;;;22.20;34.50;;;;;;4973104;28;20197;-58
2021/09/19 00:53:26;;;;;;;7.43;6.90;;;22.20;34.50;;;;;;4973073;28;20178;-58
2021/09/19 00:55:56;;;;;;;8.07;7.37;;;22.20;34.50;;;;;;4973006;28;20179;-59
2021/09/19 00:58:22;;;;;;;8.20;7.67;;;22.20;34.50;;;;;;4973021;28;20438;-58
2021/09/19 01:00:49;;;;;;;8.83;8.23;;;22.20;34.40;;;;;;4973070;28;20426;-58
2021/09/19 01:03:18;;;;;;;9.30;8.60;;;22.20;34.60;;;;;;4973023;28;20193;-58
2021/09/19 01:05:44;;;;;;;9.13;8.23;;;22.20;35.30;;;;;;4973068;28;20476;-59
2021/09/19 01:08:14;;;;;;;8.40;7.60;;;22.20;34.40;;;;;;4972664;28;20465;-58
2021/09/19 01:10:40;;;;;;;8.83;8.13;;;22.20;34.60;;;;;;4973076;28;20410;-56
2021/09/19 01:13:06;;;;;;;8.10;7.57;;;22.20;34.60;;;;;;4972889;28;20415;-58
2021/09/19 01:15:32;;;;;;;8.37;7.77;;;22.20;34.60;;;;;;4972789;28;20480;-59
2021/09/19 01:17:59;;;;;;;8.13;7.53;;;22.20;34.70;;;;;;4972713;28;20434;-59
2021/09/19 01:20:26;;;;;;;8.13;7.63;;;22.20;34.60;;;;;;4972772;28;20516;-58
2021/09/19 01:23:17;;;;;;;8.43;7.73;;;22.20;34.60;;;;;;4972766;28;20418;-60
2021/09/19 01:25:44;;;;;;;7.67;7.07;;;22.20;34.70;;;;;;4972612;28;20426;-58
2021/09/19 01:28:10;;;;;;;7.70;7.20;;;22.20;34.70;;;;;;4972371;28;20469;-58
2021/09/19 01:30:37;;;;;;;8.00;7.50;;;22.10;34.60;;;;;;4972935;28;20414;-58
2021/09/19 01:33:03;;;;;;;8.33;7.73;;;22.20;34.70;;;;;;4972660;28;20904;-59
2021/09/19 01:35:29;;;;;;;7.77;7.27;;;22.20;34.70;;;;;;4972742;28;20410;-58
2021/09/19 01:37:56;;;;;;;8.83;8.23;;;22.10;34.70;;;;;;4972305;28;20785;-58
2021/09/19 01:40:22;;;;;;;7.30;6.80;;;22.10;34.60;;;;;;4975722;28;20414;-58
2021/09/19 01:42:48;;;;;;;8.60;8.00;;;22.10;34.60;;;;;;4976203;28;20975;-58
2021/09/19 01:45:14;;;;;;;8.40;7.80;;;22.10;34.50;;;;;;4976325;28;20464;-59
2021/09/19 01:47:40;;;;;;;7.90;7.33;;;22.10;34.60;;;;;;4975694;28;20214;-58
2021/09/19 01:50:07;;;;;;;7.83;7.33;;;22.10;34.60;;;;;;4976218;28;20265;-58
2021/09/19 01:52:33;;;;;;;6.87;6.37;;;22.10;34.70;;;;;;4976061;28;20432;-57
2021/09/19 01:54:59;;;;;;;7.83;7.13;;;22.10;34.60;;;;;;4976115;28;20832;-59
2021/09/19 01:57:25;;;;;;;7.00;6.50;;;22.10;34.60;;;;;;4975765;28;20604;-58
2021/09/19 01:59:52;;;;;;;7.93;7.30;;;22.10;34.70;;;;;;4976228;28;20418;-59
2021/09/19 02:02:19;;;;;;;7.60;7.00;;;22.10;34.60;;;;;;4975951;28;20182;-57
2021/09/19 02:04:45;;;;;;;7.27;6.77;;;22.10;34.60;;;;;;4975982;28;20421;-56
2021/09/19 02:07:11;;;;;;;7.53;6.93;;;22.10;34.60;;;;;;4975601;28;20454;-58
2021/09/19 02:09:36;;;;;;;7.00;6.50;;;22.10;34.70;;;;;;4975736;28;20794;-58
2021/09/19 02:12:02;;;;;;;7.90;7.30;;;22.10;34.60;;;;;;4975674;28;20657;-58
2021/09/19 02:14:28;;;;;;;6.87;6.47;;;22.10;34.60;;;;;;4975757;28;20179;-59
2021/09/19 02:16:53;;;;;;;7.60;7.07;;;22.10;34.50;;;;;;4975418;28;20171;-57
2021/09/19 02:19:19;;;;;;;7.10;6.60;;;22.10;34.50;;;;;;4975592;28;20195;-58
2021/09/19 02:21:45;;;;;;;7.50;6.90;;;22.10;34.50;;;;;;4975425;28;20673;-58
2021/09/19 02:24:11;;;;;;;7.07;6.60;;;22.10;34.50;;;;;;4975523;28;20167;-59
2021/09/19 02:26:37;;;;;;;7.70;7.20;;;22.10;34.60;;;;;;4975164;28;20420;-59
2021/09/19 02:29:03;;;;;;;7.03;6.60;;;22.10;34.60;;;;;;4975337;28;20314;-58
2021/09/19 02:31:29;;;;;;;7.57;7.07;;;22.10;34.70;;;;;;4975453;28;20464;-58
2021/09/19 02:33:54;;;;;;;7.57;7.03;;;22.10;34.60;;;;;;4975398;28;20418;-59
2021/09/19 02:36:20;;;;;;;6.80;6.40;;;22.10;34.60;;;;;;4975348;28;20658;-59
2021/09/19 02:38:46;;;;;;;6.50;6.10;;;22.10;34.60;;;;;;4975063;28;20198;-59
2021/09/19 02:41:11;;;;;;;7.00;6.50;;;22.00;34.60;;;;;;4975261;28;20174;-58
2021/09/19 02:43:37;;;;;;;7.20;6.80;;;22.00;34.50;;;;;;4975227;28;20171;-59
2021/09/19 02:46:03;;;;;;;6.20;5.80;;;22.00;34.60;;;;;;4975216;28;20221;-59
2021/09/19 02:48:28;;;;;;;7.23;6.73;;;22.00;34.50;;;;;;4974739;28;20238;-57
2021/09/19 02:50:54;;;;;;;7.03;6.53;;;22.00;34.60;;;;;;4974975;28;20250;-57
2021/09/19 02:53:19;;;;;;;7.00;6.50;;;22.00;34.50;;;;;;4975128;28;20177;-58
2021/09/19 02:55:45;;;;;;;7.20;6.70;;;22.00;34.60;;;;;;4974990;28;20251;-59
2021/09/19 02:58:10;;;;;;;6.70;6.30;;;22.00;34.60;;;;;;4974750;28;20559;-58
2021/09/19 03:00:36;;;;;;;6.67;6.17;;;22.00;34.60;;;;;;4975150;28;20185;-59
2021/09/19 03:03:02;;;;;;;6.70;6.20;;;22.00;34.50;;;;;;4974967;28;20199;-58
2021/09/19 03:05:27;;;;;;;6.70;6.30;;;22.00;34.60;;;;;;4974850;28;20181;-58
2021/09/19 03:07:56;;;;;;;6.57;6.10;;;22.00;34.60;;;;;;4974418;28;20580;-58
2021/09/19 03:10:23;;;;;;;7.83;7.23;;;22.00;35.30;;;;;;4975003;28;20532;-58
2021/09/19 03:12:48;;;;;;;6.10;5.70;;;22.00;34.50;;;;;;4974713;28;20457;-58
2021/09/19 03:15:14;;;;;;;7.10;6.50;;;22.00;34.50;;;;;;4974774;28;20863;-56
2021/09/19 03:17:40;;;;;;;6.80;6.30;;;22.00;34.60;;;;;;4974382;28;20198;-57
2021/09/19 03:20:12;;;;;;;7.30;6.80;;;22.00;34.60;;;;;;4974430;28;20190;-59
2021/09/19 03:22:38;;;;;;;6.90;6.50;;;22.00;34.60;;;;;;4974532;28;20410;-59
2021/09/19 03:25:05;;;;;;;6.30;5.90;;;22.00;34.60;;;;;;4974439;28;20428;-59
2021/09/19 03:27:31;;;;;;;7.23;6.67;;;22.00;34.70;;;;;;4974050;28;20198;-59
2021/09/19 03:29:57;;;;;;;6.10;5.60;;;22.00;34.70;;;;;;4974357;28;20944;-59
2021/09/19 03:32:23;;;;;;;6.40;6.00;;;22.00;34.60;;;;;;4974486;28;20773;-59
2021/09/19 03:34:48;;;;;;;7.03;6.47;;;22.00;34.50;;;;;;4974180;28;20402;-59
2021/09/19 03:37:14;;;;;;;6.57;6.17;;;22.00;34.50;;;;;;4973938;28;20564;-59
2021/09/19 03:39:40;;;;;;;6.50;6.10;;;22.00;34.60;;;;;;4974059;28;20203;-59
2021/09/19 03:42:05;;;;;;;7.00;6.43;;;22.00;34.60;;;;;;4974115;28;20187;-58
2021/09/19 03:44:31;;;;;;;6.50;6.00;;;22.00;34.60;;;;;;4974112;28;20210;-60
2021/09/19 03:46:56;;;;;;;6.70;6.27;;;22.00;34.60;;;;;;4973786;28;20181;-58
2021/09/19 03:49:22;;;;;;;6.27;5.87;;;22.00;34.50;;;;;;4973891;28;20234;-59
2021/09/19 03:51:47;;;;;;;6.10;5.70;;;22.00;34.50;;;;;;4973952;28;20185;-57
2021/09/19 03:54:13;;;;;;;6.43;6.03;;;22.00;34.50;;;;;;4973893;28;20175;-59
2021/09/19 03:56:38;;;;;;;6.40;5.90;;;21.90;34.50;;;;;;4973714;28;20175;-59
2021/09/19 03:59:04;;;;;;;5.93;5.53;;;22.00;34.70;;;;;;4973673;28;20256;-59
2021/09/19 04:01:29;;;;;;;6.07;5.70;;;22.00;34.50;;;;;;4973264;28;20183;-59
2021/09/19 04:03:55;;;;;;;6.67;6.20;;;22.00;34.50;;;;;;4973631;28;20257;-60
2021/09/19 04:06:20;;;;;;;6.00;5.60;;;22.00;34.50;;;;;;4973544;28;20645;-57
2021/09/19 04:08:46;;;;;;;5.77;5.37;;;22.00;34.50;;;;;;4973550;28;20225;-59
2021/09/19 04:11:11;;;;;;;6.13;5.73;;;22.00;35.20;;;;;;4973627;28;20512;-57
2021/09/19 04:13:37;;;;;;;6.20;5.80;;;22.00;34.50;;;;;;4973717;28;20225;-59
2021/09/19 04:16:03;;;;;;;5.67;5.37;;;22.00;35.20;;;;;;4973624;28;20261;-59
2021/09/19 04:18:28;;;;;;;6.20;5.80;;;22.00;34.50;;;;;;4973257;28;20672;-58
2021/09/19 04:20:54;;;;;;;5.33;4.93;;;22.00;34.50;;;;;;4973254;28;20205;-60
2021/09/19 04:23:22;;;;;;;6.20;5.80;;;21.90;34.40;;;;;;4972563;28;20190;-59
2021/09/19 04:25:48;;;;;;;6.17;5.70;;;21.90;34.50;;;;;;4968953;28;20196;-58
2021/09/19 04:28:14;;;;;;;6.50;6.10;;;21.90;34.50;;;;;;4969619;28;20472;-56
2021/09/19 04:30:39;;;;;;;6.53;6.13;;;21.90;34.50;;;;;;4973501;28;20410;-58
2021/09/19 04:33:05;;;;;;;6.00;5.60;;;21.90;34.50;;;;;;4973296;28;20232;-58
2021/09/19 04:35:30;;;;;;;6.07;5.67;;;21.90;34.50;;;;;;4973188;28;20178;-60
2021/09/19 04:37:56;;;;;;;6.30;5.90;;;21.90;34.50;;;;;;4972941;28;20206;-59
2021/09/19 04:40:21;;;;;;;6.77;6.37;;;21.90;34.50;;;;;;4973323;28;20185;-59
2021/09/19 04:42:47;;;;;;;6.80;6.37;;;21.90;34.60;;;;;;4973269;28;20178;-59
2021/09/19 04:45:12;;;;;;;6.00;5.60;;;21.90;34.80;;;;;;4973063;28;20186;-60
2021/09/19 04:47:38;;;;;;;6.23;5.83;;;21.90;34.90;;;;;;4972781;28;20715;-60
2021/09/19 04:50:05;;;;;;;6.00;5.40;;;21.90;34.80;;;;;;4973075;28;20754;-59
2021/09/19 04:52:31;;;;;;;5.67;5.37;;;21.90;34.80;;;;;;4973172;28;20178;-59
2021/09/19 04:54:56;;;;;;;5.87;5.57;;;21.90;34.80;;;;;;4973005;28;20410;-59
2021/09/19 04:57:22;;;;;;;5.53;5.20;;;21.90;34.70;;;;;;4972879;28;20186;-59
2021/09/19 04:59:48;;;;;;;5.60;5.30;;;21.90;34.90;;;;;;4973084;28;20183;-59
2021/09/19 05:02:13;;;;;;;6.87;6.27;;;21.90;34.90;;;;;;4973100;28;20258;-58
2021/09/19 05:04:38;;;;;;;5.50;5.20;;;21.90;35.40;;;;;;4972928;28;20213;-60
2021/09/19 05:07:04;;;;;;;5.80;5.40;;;21.90;35.40;;;;;;4972468;28;20179;-57
2021/09/19 05:09:29;;;;;;;6.50;5.90;;;21.90;35.10;;;;;;4972991;28;20598;-61
2021/09/19 05:11:55;;;;;;;6.10;5.60;;;21.90;35.50;;;;;;4972835;28;20183;-59
2021/09/19 05:14:21;;;;;;;6.20;5.60;;;21.90;35.50;;;;;;4974394;28;20194;-63
2021/09/19 05:16:46;;;;;;;6.00;5.60;;;21.90;35.20;;;;;;4974115;28;20270;-59
2021/09/19 05:19:12;;;;;;;6.30;5.90;;;21.80;35.10;;;;;;4976576;28;20245;-59
2021/09/19 05:21:37;;;;;;;5.40;5.03;;;21.90;35.00;;;;;;4976278;28;20611;-56
2021/09/19 05:24:03;;;;;;;5.77;5.37;;;21.90;35.00;;;;;;4976596;28;20182;-62
2021/09/19 05:26:28;;;;;;;7.30;6.70;;;21.80;34.80;;;;;;4976288;28;20183;-62
2021/09/19 05:28:54;;;;;;;6.30;5.80;;;21.90;34.90;;;;;;4958604;28;20716;-63
2021/09/19 05:31:20;;;;;;;5.93;5.47;;;21.80;34.80;;;;;;4971929;28;20207;-62
2021/09/19 05:33:48;;;;;;;5.70;5.30;;;21.90;34.70;;;;;;4957168;29;20182;-63
2021/09/19 05:36:15;;;;;;;6.20;5.80;;;21.80;34.50;;;;;;4956843;29;20179;-63
2021/09/19 05:38:41;;;;;;;6.17;5.57;;;21.90;34.50;;;;;;4956827;29;20996;-62
2021/09/19 05:41:07;;;;;;;6.23;5.73;;;21.90;34.30;;;;;;4956902;28;20438;-62
2021/09/19 05:43:32;;;;;;;5.77;5.37;;;21.90;34.20;;;;;;4973927;28;20913;-63
2021/09/19 05:45:58;;;;;;;5.53;5.23;;;21.80;34.10;;;;;;4976184;28;20174;-62
2021/09/19 05:48:23;;;;;;;6.53;5.93;;;21.90;34.10;;;;;;4975663;28;20764;-64
2021/09/19 05:50:49;;;;;;;7.43;6.27;;;21.90;34.30;;;;;;4976168;28;20204;-62
2021/09/19 05:53:14;;;;;;;6.27;5.80;;;21.90;34.40;;;;;;4975816;28;20205;-63
2021/09/19 05:55:40;;;;;;;5.70;5.30;;;21.90;34.30;;;;;;4968751;28;20596;-63
2021/09/19 05:58:06;;;;;;;5.60;5.17;;;21.90;34.40;;;;;;4975377;28;20202;-64
2021/09/19 06:00:31;;;;;;;6.03;5.63;;;21.90;34.30;;;;;;4975959;28;20190;-64
2021/09/19 06:02:57;;;;;;;7.03;6.53;;;21.90;34.40;;;;;;4957490;28;20218;-63
2021/09/19 06:05:22;;;;;;;9.40;6.43;;;21.90;34.30;;;;;;4956350;29;20180;-61
2021/09/19 06:07:48;;;;;;;7.03;6.53;;;21.90;34.30;;;;;;4956135;28;20217;-59
2021/09/19 06:10:13;;;;;;;7.30;6.50;;;21.80;34.40;;;;;;4969806;28;20557;-59
2021/09/19 06:12:39;;;;;;;8.23;6.90;;;21.80;34.60;;;;;;4974172;28;20214;-58
2021/09/19 06:15:06;;;;;;;9.27;6.20;;;21.90;34.60;;;;;;4972364;28;20206;-59
2021/09/19 06:17:32;;;;;;;7.23;6.63;;;21.80;34.30;;;;;;4973741;28;20425;-57
2021/09/19 06:19:58;;;;;;;7.63;6.73;;;21.80;34.10;;;;;;4972936;28;20426;-59
2021/09/19 06:22:24;;;;;;;6.50;5.90;;;21.80;33.60;;;;;;4967454;28;20179;-58
2021/09/19 06:24:49;;;;;;;7.23;6.63;;;21.80;33.40;;;;;;4975035;28;20421;-57
2021/09/19 06:27:15;;;;;;;7.10;6.40;;;21.80;32.90;;;;;;4975021;28;20261;-59
2021/09/19 06:29:41;;;;;;;7.37;6.80;;;21.80;32.80;;;;;;4975187;28;20253;-59
2021/09/19 06:32:08;;;;;;;7.33;6.63;;;21.70;32.50;;;;;;4975231;28;20174;-59
2021/09/19 06:34:35;;;;;;;6.20;5.80;;;21.70;32.20;;;;;;4975196;28;20445;-59
2021/09/19 06:37:01;;;;;;;6.70;6.07;;;21.70;31.90;;;;;;4975242;28;20920;-59
2021/09/19 06:39:26;;;;;;;7.23;6.60;;;21.70;32.00;;;;;;4975236;28;20521;-59
2021/09/19 06:41:52;;;;;;;6.30;5.80;;;21.70;32.30;;;;;;4975197;28;20183;-63
2021/09/19 06:44:18;;;;;;;6.53;5.97;;;21.70;32.40;;;;;;4975215;28;20187;-59
2021/09/19 06:46:44;;;;;;;7.80;7.10;;;21.70;32.80;;;;;;4974849;28;20592;-59
2021/09/19 06:49:10;;;;;;;7.40;6.40;;;21.70;33.00;;;;;;4974831;28;20891;-59
2021/09/19 06:51:36;;;;;;;8.73;7.83;;;21.70;33.00;;;;;;4974635;28;20441;-57
2021/09/19 06:54:02;;;;;;;11.37;7.57;;;21.70;33.20;;;;;;4973554;28;20171;-58
2021/09/19 06:56:27;;;;;;;9.03;7.57;;;21.70;33.30;;;;;;4974755;28;20175;-58
2021/09/19 06:58:53;;;;;;;13.97;8.10;;;21.70;33.40;;;;;;4974733;28;20558;-58
2021/09/19 07:01:21;;;;;;;13.73;8.20;;;21.70;33.60;;;;;;4974721;28;20590;-59
2021/09/19 07:03:47;;;;;;;15.83;9.13;;;21.70;33.80;;;;;;4974946;28;20236;-58
2021/09/19 07:06:13;;;;;;;22.40;9.80;;;21.70;33.90;;;;;;4974739;28;20415;-59
2021/09/19 07:08:38;;;;;;;13.10;9.00;;;21.70;34.30;;;;;;4974294;28;20473;-59
2021/09/19 07:11:04;;;;;;;13.30;9.10;;;21.70;34.50;;;;;;4974593;28;20167;-58
2021/09/19 07:13:30;;;;;;;9.33;8.23;;;21.70;34.60;;;;;;4974629;28;20293;-58
2021/09/19 07:15:55;;;;;;;14.07;8.80;;;21.70;34.50;;;;;;4974598;28;20254;-58
2021/09/19 07:18:22;;;;;;;12.50;8.40;;;21.80;34.60;;;;;;4974044;28;20195;-58
2021/09/19 07:20:48;;;;;;;11.47;8.30;;;21.80;34.60;;;;;;4974484;28;20206;-58
2021/09/19 07:23:14;;;;;;;16.10;8.00;;;21.70;34.50;;;;;;4974641;28;20767;-58
2021/09/19 07:25:40;;;;;;;12.83;8.63;;;21.70;34.60;;;;;;4974409;28;20406;-59
2021/09/19 07:28:06;;;;;;;9.37;7.33;;;21.80;34.80;;;;;;4989256;28;20218;-57
2021/09/19 07:30:33;;;;;;;11.07;7.60;;;21.80;34.90;;;;;;4974143;28;20916;-59
2021/09/19 07:32:59;;;;;;;10.00;7.20;;;21.70;35.00;;;;;;4974193;28;20414;-58
2021/09/19 07:35:24;;;;;;;9.07;7.23;;;21.70;34.80;;;;;;4966917;28;20526;-57
2021/09/19 07:37:50;;;;;;;9.03;7.50;;;21.70;34.90;;;;;;4958112;28;20462;-58
2021/09/19 07:40:16;;;;;;;12.03;9.07;;;21.70;35.10;;;;;;4955024;28;20167;-54
2021/09/19 07:42:42;;;;;;;10.97;8.20;;;21.70;35.00;;;;;;4954646;28;20222;-57
2021/09/19 07:45:09;;;;;;;11.57;9.33;;;21.70;35.00;;;;;;4954631;28;20355;-59
2021/09/19 07:47:35;;;;;;;15.80;9.13;;;21.70;35.10;;;;;;4954416;28;20218;-57
2021/09/19 07:50:01;;;;;;;15.00;9.23;;;21.70;35.10;;;;;;4954676;28;20438;-59
2021/09/19 07:52:27;;;;;;;14.77;8.60;;;21.70;35.10;;;;;;4954396;28;20427;-59
2021/09/19 07:54:54;;;;;;;16.20;8.43;;;21.70;35.20;;;;;;4954667;28;20760;-58
2021/09/19 07:57:22;;;;;;;13.30;9.00;;;21.70;35.30;;;;;;4954118;28;20415;-58
2021/09/19 07:59:49;;;;;;;15.03;8.20;;;21.80;35.40;;;;;;4956256;28;20506;-58
2021/09/19 08:02:14;;;;;;;10.07;8.00;;;21.70;35.30;;;;;;4968021;28;20418;-58
2021/09/19 08:04:40;;;;;;;11.47;8.00;;;21.70;35.40;;;;;;4973642;28;20420;-58
2021/09/19 08:07:05;;;;;;;10.23;8.03;;;21.70;35.50;;;;;;4973417;28;20198;-58
2021/09/19 08:09:31;;;;;;;9.27;7.13;;;21.70;35.40;;;;;;4973317;28;20274;-57
2021/09/19 08:11:56;;;;;;;13.33;8.20;;;21.70;35.40;;;;;;4971384;28;20657;-56
2021/09/19 08:14:22;;;;;;;12.43;9.57;;;21.70;35.30;;;;;;4968738;28;20175;-59
2021/09/19 08:16:47;;;;;;;9.40;7.97;;;21.70;35.50;;;;;;4965011;28;20182;-56
2021/09/19 08:19:13;;;;;;;12.87;8.00;;;21.70;35.50;;;;;;4956334;28;20238;-59
2021/09/19 08:21:38;;;;;;;10.10;7.13;;;21.70;35.60;;;;;;4954136;28;20199;-57
2021/09/19 08:24:07;;;;;;;11.53;7.80;;;21.70;35.70;;;;;;4953960;28;20176;-59
2021/09/19 08:26:33;;;;;;;11.30;7.17;;;21.70;35.70;;;;;;4953926;28;20191;-58
2021/09/19 08:28:59;;;;;;;9.83;7.00;;;21.80;35.70;;;;;;4955824;28;20476;-59
2021/09/19 08:31:24;;;;;;;10.13;6.60;;;21.70;36.30;;;;;;4958519;28;20411;-58
2021/09/19 08:33:50;;;;;;;11.80;7.60;;;21.70;35.70;;;;;;4954826;28;20186;-58
2021/09/19 08:36:16;;;;;;;11.20;7.60;;;21.80;35.80;;;;;;4963290;28;20186;-59
2021/09/19 08:38:41;;;;;;;8.60;7.80;;;21.80;35.90;;;;;;4960538;28;20285;-57
2021/09/19 08:41:07;;;;;;;9.47;7.63;;;21.80;35.90;;;;;;4962888;28;20633;-59
2021/09/19 08:43:32;;;;;;;13.20;7.90;;;21.80;36.00;;;;;;4961662;28;20182;-59
2021/09/19 08:45:58;;;;;;;8.33;7.33;;;21.70;35.90;;;;;;4961868;28;20499;-58
2021/09/19 08:48:25;;;;;;;9.77;7.17;;;21.80;36.00;;;;;;4962508;28;20256;-59
2021/09/19 08:50:53;;;;;;;10.97;6.73;;;21.80;36.60;;;;;;4964809;28;20179;-59
2021/09/19 08:53:20;;;;;;;7.60;6.83;;;21.80;35.90;;;;;;4973068;28;20943;-58
2021/09/19 08:55:46;;;;;;;7.33;6.50;;;21.80;35.90;;;;;;4973163;28;20449;-58
2021/09/19 08:58:12;;;;;;;9.07;6.70;;;21.80;35.70;;;;;;4972737;28;20450;-59
2021/09/19 09:00:47;;;;;;;6.30;5.70;;;21.80;35.50;;;;;;4973046;28;20422;-58
2021/09/19 09:03:15;;;;;;;6.20;5.60;;;21.80;35.10;;;;;;4973329;28;20421;-58
2021/09/19 09:05:41;;;;;;;6.20;5.60;;;21.80;35.00;;;;;;4973038;28;20465;-59
2021/09/19 09:08:09;;;;;;;7.43;6.30;;;21.80;34.80;;;;;;4972529;28;20501;-59
2021/09/19 09:10:43;;;;;;;5.83;5.33;;;21.80;34.70;;;;;;4970133;28;21340;-59
2021/09/19 09:13:20;;;;;;;5.00;4.60;;;21.80;34.60;;;;;;4969860;28;20500;-59
2021/09/19 09:15:48;;;;;;;6.10;5.27;;;21.80;34.50;;;;;;4956767;28;20439;-62
2021/09/19 09:18:27;;;;;;;6.13;5.63;;;21.80;34.40;;;;;;4958726;28;20939;-65
2021/09/19 09:20:55;;;;;;;5.57;5.07;;;21.80;34.50;;;;;;4955501;28;20521;-61
2021/09/19 09:23:27;;;;;;;5.97;4.63;;;21.80;34.40;;;;;;4958017;28;20474;-64
2021/09/19 09:26:11;;;;;;;4.93;4.50;;;21.70;34.10;;;;;;4959779;28;20940;-58
2021/09/19 09:28:40;;;;;;;4.67;4.27;;;21.80;34.00;;;;;;4956128;28;20462;-60
2021/09/19 09:31:05;;;;;;;5.10;4.63;;;21.80;33.90;;;;;;4959958;28;20402;-60
2021/09/19 09:33:31;;;;;;;5.87;5.23;;;21.80;33.80;;;;;;4957674;28;20424;-59
2021/09/19 09:35:56;;;;;;;4.77;4.37;;;21.70;33.50;;;;;;4966351;28;20265;-60
2021/09/19 09:38:24;;;;;;;5.10;4.53;;;21.70;33.50;;;;;;4961485;28;20207;-59
2021/09/19 09:40:51;;;;;;;4.63;4.30;;;21.80;33.50;;;;;;4958174;28;20178;-60
2021/09/19 09:43:18;;;;;;;5.07;4.67;;;21.80;33.50;;;;;;4964503;28;20858;-60
2021/09/19 09:45:46;;;;;;;5.90;4.67;;;21.80;33.60;;;;;;4954175;28;20415;-59
2021/09/19 09:48:31;;;;;;;5.27;4.77;;;21.80;33.40;;;;;;4952130;28;20570;-58
2021/09/19 09:51:03;;;;;;;4.23;3.93;;;21.70;33.50;;;;;;4955640;28;20941;-59
2021/09/19 09:53:28;;;;;;;4.73;4.33;;;21.80;33.50;;;;;;4960315;28;20458;-57
2021/09/19 09:55:57;;;;;;;4.63;4.23;;;21.80;33.40;;;;;;4962997;28;20465;-58
2021/09/19 09:58:23;;;;;;;5.63;4.90;;;21.80;33.40;;;;;;4954800;28;20204;-58
2021/09/19 10:00:51;;;;;;;5.13;4.63;;;21.90;33.60;;;;;;4964947;28;20430;-59
2021/09/19 10:03:17;;;;;;;5.63;4.33;;;21.90;35.70;;;;;;4953268;28;20415;-61
2021/09/19 10:05:44;;;;;;;3.93;3.63;;;21.90;35.50;;;;;;4963186;28;20418;-60
2021/09/19 10:08:10;;;;;;;4.43;4.13;;;22.00;34.50;;;;;;4963099;28;20466;-59
2021/09/19 10:10:46;;;;;;;5.27;4.77;;;21.90;33.60;;;;;;4961989;28;21214;-58
2021/09/19 10:13:14;;;;;;;6.17;5.77;;;21.90;32.80;;;;;;4959038;28;20789;-61
2021/09/19 10:15:42;;;;;;;6.63;6.03;;;21.80;32.40;;;;;;4961934;28;20871;-58
2021/09/19 10:18:09;;;;;;;6.23;5.63;;;21.90;32.60;;;;;;4960964;28;20972;-58
2021/09/19 10:20:38;;;;;;;7.50;6.80;;;21.90;32.60;;;;;;4959908;28;20439;-60
2021/09/19 10:23:18;;;;;;;10.43;9.43;;;22.00;33.30;;;;;;4957677;28;20848;-60
2021/09/19 10:25:47;;;;;;;8.80;7.93;;;22.00;33.30;;;;;;4955165;28;20459;-58
2021/09/19 10:28:28;;;;;;;8.17;7.40;;;22.00;32.90;;;;;;4964997;28;20493;-59
2021/09/19 10:31:09;;;;;;;9.23;8.50;;;22.00;32.20;;;;;;4962270;28;20422;-60
2021/09/19 10:33:44;;;;;;;30.80;22.23;;;22.00;31.70;;;;;;4971220;28;20421;-59
2021/09/19 10:36:49;;;;;;;50.73;29.40;;;22.10;31.70;;;;;;4971374;28;20542;-60
2021/09/19 10:39:20;;;;;;;40.77;28.67;;;22.10;31.70;;;;;;4971686;28;20805;-60
2021/09/19 10:42:03;;;;;;;47.10;32.27;;;22.20;31.80;;;;;;4967824;28;20426;-53
2021/09/19 10:44:45;;;;;;;53.77;36.27;;;22.30;31.90;;;;;;4971769;28;20422;-60
2021/09/19 10:47:25;;;;;;;67.10;38.67;;;22.30;32.10;;;;;;4971371;28;20414;-58
2021/09/19 10:50:28;;;;;;;55.20;35.73;;;22.40;32.50;;;;;;4968518;28;20445;-60
2021/09/19 10:52:55;;;;;;;52.50;35.13;;;22.40;32.60;;;;;;4968794;28;20453;-59
2021/09/19 10:55:23;;;;;;;49.50;28.73;;;22.50;32.80;;;;;;4966688;28;20434;-59
2021/09/19 10:57:59;;;;;;;45.77;29.73;;;22.50;32.90;;;;;;4974838;28;20867;-59
2021/09/19 11:00:27;;;;;;;49.23;28.10;;;22.50;33.00;;;;;;4974803;28;20414;-59
2021/09/19 11:03:36;;;;;;;36.13;24.70;;;22.60;33.10;;;;;;4974733;28;20437;-59
2021/09/19 11:06:03;;;;;;;34.90;22.50;;;22.60;33.10;;;;;;4968113;28;21122;-59
2021/09/19 11:08:37;;;;;;;31.97;21.70;;;22.60;33.10;;;;;;4972665;28;20572;-59
2021/09/19 11:11:07;;;;;;;29.20;20.17;;;22.60;33.10;;;;;;4968016;28;20465;-59
2021/09/19 11:13:43;;;;;;;27.30;17.53;;;22.70;33.20;;;;;;4970625;28;20951;-57
2021/09/19 11:16:17;;;;;;;20.50;15.40;;;22.70;33.10;;;;;;4971369;28;20525;-56
2021/09/19 11:18:47;;;;;;;20.87;14.80;;;22.70;33.10;;;;;;4966317;28;20454;-56
2021/09/19 11:21:17;;;;;;;21.37;13.60;;;22.70;33.00;;;;;;4973262;28;20443;-57
2021/09/19 11:23:46;;;;;;;22.90;13.43;;;22.70;33.10;;;;;;4969696;28;20434;-59
2021/09/19 11:26:18;;;;;;;18.43;11.93;;;22.70;33.30;;;;;;4972862;28;20410;-59
2021/09/19 11:28:44;;;;;;;14.23;10.30;;;22.60;33.20;;;;;;4972652;28;20468;-57
2021/09/19 11:31:10;;;;;;;12.80;10.10;;;22.70;34.00;;;;;;4969831;28;20414;-57
2021/09/19 11:33:36;;;;;;;10.83;9.33;;;22.70;33.10;;;;;;4968814;28;20513;-57
2021/09/19 11:36:04;;;;;;;11.03;8.70;;;22.70;33.10;;;;;;4971858;28;21032;-59
2021/09/19 11:38:41;;;;;;;11.47;9.27;;;22.70;33.10;;;;;;4968672;28;20481;-59
2021/09/19 11:41:07;;;;;;;9.53;8.53;;;22.70;32.90;;;;;;4969326;28;20414;-59
2021/09/19 11:43:35;;;;;;;9.60;8.50;;;22.70;32.80;;;;;;4973145;28;20425;-58
2021/09/19 11:46:10;;;;;;;11.83;8.40;;;22.70;32.90;;;;;;4967954;28;20411;-60
2021/09/19 11:48:36;;;;;;;8.90;8.10;;;22.70;32.90;;;;;;4972892;28;20472;-59
2021/09/19 11:51:02;;;;;;;9.70;8.70;;;22.80;33.00;;;;;;4973939;28;20446;-60
2021/09/19 11:53:28;;;;;;;10.00;7.53;;;22.80;32.80;;;;;;4973785;28;20398;-59
2021/09/19 11:55:54;;;;;;;7.70;7.00;;;22.80;32.70;;;;;;4973951;28;20409;-60
2021/09/19 11:58:21;;;;;;;8.17;7.37;;;22.80;32.70;;;;;;4973285;28;20313;-60
2021/09/19 12:00:54;;;;;;;7.50;6.80;;;22.80;32.80;;;;;;4973195;28;20434;-56
2021/09/19 12:03:20;;;;;;;7.47;6.77;;;22.80;32.80;;;;;;4965828;28;20465;-57
2021/09/19 12:05:49;;;;;;;7.50;6.77;;;22.80;32.90;;;;;;4973196;28;20453;-58
2021/09/19 12:08:15;;;;;;;6.73;6.13;;;22.80;33.00;;;;;;4973366;28;20221;-57
2021/09/19 12:10:41;;;;;;;7.20;6.50;;;22.80;32.90;;;;;;4972029;28;20925;-59
2021/09/19 12:13:29;;;;;;;6.57;5.93;;;22.80;33.00;;;;;;4973066;28;20418;-57
2021/09/19 12:16:03;;;;;;;5.80;5.30;;;22.80;32.90;;;;;;4972563;28;20189;-60
2021/09/19 12:18:31;;;;;;;6.30;5.80;;;22.80;32.90;;;;;;4972995;28;20445;-55
2021/09/19 12:21:07;;;;;;;6.10;5.60;;;22.80;32.80;;;;;;4973375;28;20952;-57
2021/09/19 12:23:49;;;;;;;5.60;5.10;;;22.80;32.80;;;;;;4973014;28;20414;-57
2021/09/19 12:26:29;;;;;;;7.30;6.70;;;22.80;32.70;;;;;;4973258;28;20410;-58
2021/09/19 12:29:03;;;;;;;6.13;5.70;;;22.80;32.60;;;;;;4973390;28;20465;-58
2021/09/19 12:31:43;;;;;;;6.10;5.50;;;22.80;32.70;;;;;;4973441;28;20494;-58
2021/09/19 12:34:12;;;;;;;5.33;4.90;;;22.70;32.60;;;;;;4973009;28;20505;-58
2021/09/19 12:36:47;;;;;;;5.70;5.20;;;22.80;32.80;;;;;;4972744;28;20898;-57
2021/09/19 12:39:22;;;;;;;5.70;5.30;;;22.80;32.80;;;;;;4972981;28;20425;-58
2021/09/19 12:41:53;;;;;;;5.20;4.80;;;22.70;33.00;;;;;;4962628;28;20437;-55
2021/09/19 12:44:21;;;;;;;5.50;5.00;;;22.70;33.00;;;;;;4968796;28;20426;-58
2021/09/19 12:46:50;;;;;;;5.40;5.00;;;22.70;33.00;;;;;;4965284;28;20505;-56